sensor_id;sensor_type;location;lat;lon;timestamp;temperature;humidity
83770;DHT22;73763;48.936;9.300;2024-02-04T00:01:26;8.10;96.80
83770;DHT22;73763;48.936;9.300;2024-02-04T00:03:51;8.10;96.80
83770;DHT22;73763;48.936;9.300;2024-02-04T00:06:17;8.10;96.80
83770;DHT22;73763;48.936;9.300;2024-02-04T00:08:42;8.10;96.90
83770;DHT22;73763;48.936;9.300;2024-02-04T00:11:08;8.00;97.00
83770;DHT22;73763;48.936;9.300;2024-02-04T00:13:33;8.10;96.90
83770;DHT22;73763;48.936;9.300;2024-02-04T00:15:59;8.00;97.00
83770;DHT22;73763;48.936;9.300;2024-02-04T00:18:25;8.00;96.90
83770;DHT22;73763;48.936;9.300;2024-02-04T00:20:50;8.00;97.00
83770;DHT22;73763;48.936;9.300;2024-02-04T00:23:16;8.00;96.90
83770;DHT22;73763;48.936;9.300;2024-02-04T00:25:41;8.00;97.00
83770;DHT22;73763;48.936;9.300;2024-02-04T00:28:07;8.00;96.90
83770;DHT22;73763;48.936;9.300;2024-02-04T00:30:33;8.00;96.90
83770;DHT22;73763;48.936;9.300;2024-02-04T00:32:58;8.00;97.00
83770;DHT22;73763;48.936;9.300;2024-02-04T00:35:24;8.00;97.00
83770;DHT22;73763;48.936;9.300;2024-02-04T00:37:49;8.00;97.10
83770;DHT22;73763;48.936;9.300;2024-02-04T00:40:15;7.90;97.00
83770;DHT22;73763;48.936;9.300;2024-02-04T00:42:40;8.00;96.90
83770;DHT22;73763;48.936;9.300;2024-02-04T00:45:06;8.00;96.90
83770;DHT22;73763;48.936;9.300;2024-02-04T00:47:32;8.00;96.90
83770;DHT22;73763;48.936;9.300;2024-02-04T00:49:57;8.00;97.10
83770;DHT22;73763;48.936;9.300;2024-02-04T00:52:23;8.00;97.10
83770;DHT22;73763;48.936;9.300;2024-02-04T00:54:48;7.90;96.90
83770;DHT22;73763;48.936;9.300;2024-02-04T00:57:14;7.90;97.10
83770;DHT22;73763;48.936;9.300;2024-02-04T00:59:39;7.90;97.00
83770;DHT22;73763;48.936;9.300;2024-02-04T01:02:05;8.00;96.80
83770;DHT22;73763;48.936;9.300;2024-02-04T01:04:30;8.00;96.60
83770;DHT22;73763;48.936;9.300;2024-02-04T01:06:56;8.10;96.70
83770;DHT22;73763;48.936;9.300;2024-02-04T01:09:22;8.00;96.50
83770;DHT22;73763;48.936;9.300;2024-02-04T01:11:48;8.00;96.60
83770;DHT22;73763;48.936;9.300;2024-02-04T01:14:14;8.00;96.60
83770;DHT22;73763;48.936;9.300;2024-02-04T01:16:40;8.00;96.60
83770;DHT22;73763;48.936;9.300;2024-02-04T01:19:05;8.00;96.70
83770;DHT22;73763;48.936;9.300;2024-02-04T01:21:32;8.00;96.70
83770;DHT22;73763;48.936;9.300;2024-02-04T01:23:57;7.90;96.80
83770;DHT22;73763;48.936;9.300;2024-02-04T01:26:23;8.00;96.90
83770;DHT22;73763;48.936;9.300;2024-02-04T01:28:48;7.80;96.90
83770;DHT22;73763;48.936;9.300;2024-02-04T01:31:14;7.80;96.90
83770;DHT22;73763;48.936;9.300;2024-02-04T01:33:39;7.90;96.70
83770;DHT22;73763;48.936;9.300;2024-02-04T01:36:05;8.00;96.80
83770;DHT22;73763;48.936;9.300;2024-02-04T01:38:30;7.90;96.70
83770;DHT22;73763;48.936;9.300;2024-02-04T01:40:56;7.90;97.00
83770;DHT22;73763;48.936;9.300;2024-02-04T01:43:21;7.80;97.10
83770;DHT22;73763;48.936;9.300;2024-02-04T01:45:47;7.80;97.20
83770;DHT22;73763;48.936;9.300;2024-02-04T01:48:14;7.80;97.30
83770;DHT22;73763;48.936;9.300;2024-02-04T01:50:42;7.70;97.40
83770;DHT22;73763;48.936;9.300;2024-02-04T01:53:08;7.80;97.40
83770;DHT22;73763;48.936;9.300;2024-02-04T01:55:33;7.70;97.40
83770;DHT22;73763;48.936;9.300;2024-02-04T01:57:59;7.70;97.50
83770;DHT22;73763;48.936;9.300;2024-02-04T02:00:24;7.70;97.50
83770;DHT22;73763;48.936;9.300;2024-02-04T02:02:51;7.70;97.60
83770;DHT22;73763;48.936;9.300;2024-02-04T02:05:18;7.80;97.30
83770;DHT22;73763;48.936;9.300;2024-02-04T02:07:43;7.80;97.10
83770;DHT22;73763;48.936;9.300;2024-02-04T02:10:09;7.90;97.10
83770;DHT22;73763;48.936;9.300;2024-02-04T02:12:40;8.00;97.00
83770;DHT22;73763;48.936;9.300;2024-02-04T02:15:14;8.00;96.90
83770;DHT22;73763;48.936;9.300;2024-02-04T02:17:59;7.90;96.90
83770;DHT22;73763;48.936;9.300;2024-02-04T02:23:34;7.90;97.10
83770;DHT22;73763;48.936;9.300;2024-02-04T02:26:00;8.00;97.10
83770;DHT22;73763;48.936;9.300;2024-02-04T02:28:26;8.00;97.20
83770;DHT22;73763;48.936;9.300;2024-02-04T02:30:53;8.00;97.10
83770;DHT22;73763;48.936;9.300;2024-02-04T02:33:18;8.00;97.10
83770;DHT22;73763;48.936;9.300;2024-02-04T02:35:46;8.00;97.20
83770;DHT22;73763;48.936;9.300;2024-02-04T02:38:37;8.00;97.30
83770;DHT22;73763;48.936;9.300;2024-02-04T02:41:08;8.10;97.40
83770;DHT22;73763;48.936;9.300;2024-02-04T02:43:35;8.00;97.40
83770;DHT22;73763;48.936;9.300;2024-02-04T02:46:03;8.00;97.60
83770;DHT22;73763;48.936;9.300;2024-02-04T02:48:29;8.00;97.50
83770;DHT22;73763;48.936;9.300;2024-02-04T02:50:55;8.00;97.60
83770;DHT22;73763;48.936;9.300;2024-02-04T02:53:20;8.00;97.50
83770;DHT22;73763;48.936;9.300;2024-02-04T02:55:46;8.00;97.60
83770;DHT22;73763;48.936;9.300;2024-02-04T02:58:12;8.00;97.50
83770;DHT22;73763;48.936;9.300;2024-02-04T03:00:37;8.00;97.50
83770;DHT22;73763;48.936;9.300;2024-02-04T03:03:03;8.00;97.50
83770;DHT22;73763;48.936;9.300;2024-02-04T03:05:29;8.00;97.50
83770;DHT22;73763;48.936;9.300;2024-02-04T03:07:55;7.90;97.60
83770;DHT22;73763;48.936;9.300;2024-02-04T03:10:20;8.00;97.50
83770;DHT22;73763;48.936;9.300;2024-02-04T03:12:46;8.00;97.50
83770;DHT22;73763;48.936;9.300;2024-02-04T03:15:11;8.00;97.50
83770;DHT22;73763;48.936;9.300;2024-02-04T03:17:37;8.10;97.50
83770;DHT22;73763;48.936;9.300;2024-02-04T03:20:02;8.00;97.50
83770;DHT22;73763;48.936;9.300;2024-02-04T03:22:28;8.00;97.40
83770;DHT22;73763;48.936;9.300;2024-02-04T03:24:53;8.00;97.30
83770;DHT22;73763;48.936;9.300;2024-02-04T03:27:20;8.00;97.40
83770;DHT22;73763;48.936;9.300;2024-02-04T03:29:45;8.00;97.40
83770;DHT22;73763;48.936;9.300;2024-02-04T03:32:11;8.00;97.30
83770;DHT22;73763;48.936;9.300;2024-02-04T03:34:37;8.00;97.40
83770;DHT22;73763;48.936;9.300;2024-02-04T03:37:03;8.00;97.30
83770;DHT22;73763;48.936;9.300;2024-02-04T03:39:28;8.10;97.10
83770;DHT22;73763;48.936;9.300;2024-02-04T03:41:54;8.10;97.10
83770;DHT22;73763;48.936;9.300;2024-02-04T03:44:19;8.10;97.00
83770;DHT22;73763;48.936;9.300;2024-02-04T03:46:51;8.10;97.00
83770;DHT22;73763;48.936;9.300;2024-02-04T03:49:18;8.10;97.00
83770;DHT22;73763;48.936;9.300;2024-02-04T03:51:43;8.20;96.90
83770;DHT22;73763;48.936;9.300;2024-02-04T03:54:09;8.10;97.00
83770;DHT22;73763;48.936;9.300;2024-02-04T03:56:35;8.10;97.00
83770;DHT22;73763;48.936;9.300;2024-02-04T03:59:00;8.10;96.90
83770;DHT22;73763;48.936;9.300;2024-02-04T04:01:26;8.20;96.80
83770;DHT22;73763;48.936;9.300;2024-02-04T04:03:51;8.20;96.90
83770;DHT22;73763;48.936;9.300;2024-02-04T04:06:17;8.30;97.00
83770;DHT22;73763;48.936;9.300;2024-02-04T04:08:42;8.20;96.90
83770;DHT22;73763;48.936;9.300;2024-02-04T04:11:09;8.10;97.00
83770;DHT22;73763;48.936;9.300;2024-02-04T04:13:36;8.20;97.00
83770;DHT22;73763;48.936;9.300;2024-02-04T04:16:03;8.10;97.00
83770;DHT22;73763;48.936;9.300;2024-02-04T04:18:29;8.10;97.10
83770;DHT22;73763;48.936;9.300;2024-02-04T04:20:55;8.10;97.10
83770;DHT22;73763;48.936;9.300;2024-02-04T04:23:20;8.10;96.80
83770;DHT22;73763;48.936;9.300;2024-02-04T04:25:46;8.00;96.70
83770;DHT22;73763;48.936;9.300;2024-02-04T04:28:11;8.00;96.70
83770;DHT22;73763;48.936;9.300;2024-02-04T04:30:37;8.00;96.40
83770;DHT22;73763;48.936;9.300;2024-02-04T04:33:02;8.00;96.40
83770;DHT22;73763;48.936;9.300;2024-02-04T04:35:28;7.80;96.40
83770;DHT22;73763;48.936;9.300;2024-02-04T04:37:53;7.80;96.40
83770;DHT22;73763;48.936;9.300;2024-02-04T04:40:21;7.80;96.60
83770;DHT22;73763;48.936;9.300;2024-02-04T04:42:47;7.80;96.60
83770;DHT22;73763;48.936;9.300;2024-02-04T04:45:12;7.80;96.60
83770;DHT22;73763;48.936;9.300;2024-02-04T04:47:38;7.70;96.50
83770;DHT22;73763;48.936;9.300;2024-02-04T04:50:05;7.70;96.80
83770;DHT22;73763;48.936;9.300;2024-02-04T04:52:31;7.70;97.20
83770;DHT22;73763;48.936;9.300;2024-02-04T04:54:56;7.70;97.10
83770;DHT22;73763;48.936;9.300;2024-02-04T04:57:22;7.60;96.90
83770;DHT22;73763;48.936;9.300;2024-02-04T04:59:48;7.70;96.90
83770;DHT22;73763;48.936;9.300;2024-02-04T05:02:13;7.70;96.70
83770;DHT22;73763;48.936;9.300;2024-02-04T05:04:45;7.70;96.60
83770;DHT22;73763;48.936;9.300;2024-02-04T05:07:11;7.70;96.80
83770;DHT22;73763;48.936;9.300;2024-02-04T05:09:36;7.60;96.90
83770;DHT22;73763;48.936;9.300;2024-02-04T05:12:03;7.60;96.90
83770;DHT22;73763;48.936;9.300;2024-02-04T05:14:29;7.60;96.80
83770;DHT22;73763;48.936;9.300;2024-02-04T05:16:54;7.60;96.80
83770;DHT22;73763;48.936;9.300;2024-02-04T05:19:20;7.70;96.80
83770;DHT22;73763;48.936;9.300;2024-02-04T05:21:46;7.70;96.70
83770;DHT22;73763;48.936;9.300;2024-02-04T05:24:12;7.70;96.50
83770;DHT22;73763;48.936;9.300;2024-02-04T05:26:38;7.70;96.60
83770;DHT22;73763;48.936;9.300;2024-02-04T05:29:03;7.70;96.60
83770;DHT22;73763;48.936;9.300;2024-02-04T05:31:29;7.60;96.70
83770;DHT22;73763;48.936;9.300;2024-02-04T05:33:55;7.70;96.80
83770;DHT22;73763;48.936;9.300;2024-02-04T05:36:21;7.60;97.00
83770;DHT22;73763;48.936;9.300;2024-02-04T05:38:46;7.70;97.20
83770;DHT22;73763;48.936;9.300;2024-02-04T05:41:12;7.90;97.20
83770;DHT22;73763;48.936;9.300;2024-02-04T05:43:39;8.00;97.00
83770;DHT22;73763;48.936;9.300;2024-02-04T05:46:04;8.00;96.80
83770;DHT22;73763;48.936;9.300;2024-02-04T05:48:30;8.20;96.50
83770;DHT22;73763;48.936;9.300;2024-02-04T05:50:55;8.20;96.60
83770;DHT22;73763;48.936;9.300;2024-02-04T05:53:21;8.20;96.50
83770;DHT22;73763;48.936;9.300;2024-02-04T05:55:46;8.20;96.50
83770;DHT22;73763;48.936;9.300;2024-02-04T05:58:12;8.20;96.60
83770;DHT22;73763;48.936;9.300;2024-02-04T06:00:37;8.20;96.40
83770;DHT22;73763;48.936;9.300;2024-02-04T06:03:03;8.20;96.30
83770;DHT22;73763;48.936;9.300;2024-02-04T06:05:29;8.20;96.20
83770;DHT22;73763;48.936;9.300;2024-02-04T06:07:54;8.30;96.30
83770;DHT22;73763;48.936;9.300;2024-02-04T06:10:20;8.20;96.40
83770;DHT22;73763;48.936;9.300;2024-02-04T06:12:45;8.20;96.50
83770;DHT22;73763;48.936;9.300;2024-02-04T06:15:14;8.20;96.30
83770;DHT22;73763;48.936;9.300;2024-02-04T06:17:40;8.20;96.40
83770;DHT22;73763;48.936;9.300;2024-02-04T06:20:07;8.20;96.30
83770;DHT22;73763;48.936;9.300;2024-02-04T06:22:36;8.30;96.30
83770;DHT22;73763;48.936;9.300;2024-02-04T06:25:03;8.20;96.40
83770;DHT22;73763;48.936;9.300;2024-02-04T06:27:28;8.20;96.60
83770;DHT22;73763;48.936;9.300;2024-02-04T06:29:54;8.20;96.40
83770;DHT22;73763;48.936;9.300;2024-02-04T06:32:19;8.20;96.40
83770;DHT22;73763;48.936;9.300;2024-02-04T06:34:45;8.20;96.30
83770;DHT22;73763;48.936;9.300;2024-02-04T06:37:10;8.30;96.30
83770;DHT22;73763;48.936;9.300;2024-02-04T06:39:37;8.40;96.20
83770;DHT22;73763;48.936;9.300;2024-02-04T06:42:03;8.30;96.20
83770;DHT22;73763;48.936;9.300;2024-02-04T06:44:30;8.40;96.00
83770;DHT22;73763;48.936;9.300;2024-02-04T06:46:56;8.40;95.80
83770;DHT22;73763;48.936;9.300;2024-02-04T06:49:21;8.40;95.80
83770;DHT22;73763;48.936;9.300;2024-02-04T06:51:47;8.40;95.90
83770;DHT22;73763;48.936;9.300;2024-02-04T06:54:13;8.40;95.80
83770;DHT22;73763;48.936;9.300;2024-02-04T06:56:38;8.50;96.00
83770;DHT22;73763;48.936;9.300;2024-02-04T06:59:04;8.40;96.00
83770;DHT22;73763;48.936;9.300;2024-02-04T07:01:29;8.40;95.90
83770;DHT22;73763;48.936;9.300;2024-02-04T07:03:55;8.40;95.80
83770;DHT22;73763;48.936;9.300;2024-02-04T07:06:21;8.40;95.80
83770;DHT22;73763;48.936;9.300;2024-02-04T07:08:46;8.40;95.90
83770;DHT22;73763;48.936;9.300;2024-02-04T07:11:12;8.40;95.70
83770;DHT22;73763;48.936;9.300;2024-02-04T07:13:38;8.50;95.80
83770;DHT22;73763;48.936;9.300;2024-02-04T07:16:04;8.50;95.80
83770;DHT22;73763;48.936;9.300;2024-02-04T07:18:30;8.50;95.60
83770;DHT22;73763;48.936;9.300;2024-02-04T07:20:56;8.50;95.70
83770;DHT22;73763;48.936;9.300;2024-02-04T07:23:22;8.60;95.60
83770;DHT22;73763;48.936;9.300;2024-02-04T07:25:48;8.60;95.60
83770;DHT22;73763;48.936;9.300;2024-02-04T07:28:13;8.60;95.60
83770;DHT22;73763;48.936;9.300;2024-02-04T07:30:39;8.60;95.50
83770;DHT22;73763;48.936;9.300;2024-02-04T07:33:04;8.70;95.40
83770;DHT22;73763;48.936;9.300;2024-02-04T07:35:30;8.70;95.40
83770;DHT22;73763;48.936;9.300;2024-02-04T07:37:56;8.70;95.20
83770;DHT22;73763;48.936;9.300;2024-02-04T07:40:22;8.70;95.40
83770;DHT22;73763;48.936;9.300;2024-02-04T07:42:48;8.70;95.20
83770;DHT22;73763;48.936;9.300;2024-02-04T07:45:13;8.80;95.40
83770;DHT22;73763;48.936;9.300;2024-02-04T07:47:39;8.80;95.10
83770;DHT22;73763;48.936;9.300;2024-02-04T07:50:05;8.90;95.20
83770;DHT22;73763;48.936;9.300;2024-02-04T07:52:31;8.80;95.50
83770;DHT22;73763;48.936;9.300;2024-02-04T07:54:57;8.80;95.30
83770;DHT22;73763;48.936;9.300;2024-02-04T07:57:22;8.90;95.00
83770;DHT22;73763;48.936;9.300;2024-02-04T07:59:49;8.80;95.30
83770;DHT22;73763;48.936;9.300;2024-02-04T08:02:14;8.80;94.80
83770;DHT22;73763;48.936;9.300;2024-02-04T08:04:42;8.80;94.70
83770;DHT22;73763;48.936;9.300;2024-02-04T08:07:08;8.90;94.80
83770;DHT22;73763;48.936;9.300;2024-02-04T08:09:33;8.90;95.40
83770;DHT22;73763;48.936;9.300;2024-02-04T08:11:59;8.90;94.90
83770;DHT22;73763;48.936;9.300;2024-02-04T08:14:24;8.90;94.90
83770;DHT22;73763;48.936;9.300;2024-02-04T08:16:50;8.90;95.10
83770;DHT22;73763;48.936;9.300;2024-02-04T08:19:16;8.90;95.30
83770;DHT22;73763;48.936;9.300;2024-02-04T08:21:41;8.90;95.40
83770;DHT22;73763;48.936;9.300;2024-02-04T08:24:07;8.90;95.50
83770;DHT22;73763;48.936;9.300;2024-02-04T08:26:32;9.00;95.00
83770;DHT22;73763;48.936;9.300;2024-02-04T08:28:59;9.00;94.60
83770;DHT22;73763;48.936;9.300;2024-02-04T08:31:24;8.90;94.70
83770;DHT22;73763;48.936;9.300;2024-02-04T08:33:50;8.70;95.00
83770;DHT22;73763;48.936;9.300;2024-02-04T08:36:15;8.70;95.40
83770;DHT22;73763;48.936;9.300;2024-02-04T08:38:41;8.60;95.60
83770;DHT22;73763;48.936;9.300;2024-02-04T08:41:06;8.70;95.80
83770;DHT22;73763;48.936;9.300;2024-02-04T08:43:32;8.70;95.50
83770;DHT22;73763;48.936;9.300;2024-02-04T08:45:58;8.90;95.40
83770;DHT22;73763;48.936;9.300;2024-02-04T08:48:23;8.90;95.40
83770;DHT22;73763;48.936;9.300;2024-02-04T08:50:49;9.00;94.90
83770;DHT22;73763;48.936;9.300;2024-02-04T08:53:14;9.10;94.60
83770;DHT22;73763;48.936;9.300;2024-02-04T08:55:40;9.20;94.40
83770;DHT22;73763;48.936;9.300;2024-02-04T08:58:05;9.20;94.40
83770;DHT22;73763;48.936;9.300;2024-02-04T09:00:31;9.20;94.40
83770;DHT22;73763;48.936;9.300;2024-02-04T09:02:58;9.20;94.40
83770;DHT22;73763;48.936;9.300;2024-02-04T09:05:23;9.30;94.60
83770;DHT22;73763;48.936;9.300;2024-02-04T09:07:49;9.20;94.10
83770;DHT22;73763;48.936;9.300;2024-02-04T09:10:14;9.30;94.20
83770;DHT22;73763;48.936;9.300;2024-02-04T09:12:40;9.20;94.30
83770;DHT22;73763;48.936;9.300;2024-02-04T09:15:06;9.20;94.60
83770;DHT22;73763;48.936;9.300;2024-02-04T09:17:32;9.20;94.40
83770;DHT22;73763;48.936;9.300;2024-02-04T09:19:57;9.20;94.40
83770;DHT22;73763;48.936;9.300;2024-02-04T09:22:23;9.20;94.40
83770;DHT22;73763;48.936;9.300;2024-02-04T09:24:48;9.30;94.10
83770;DHT22;73763;48.936;9.300;2024-02-04T09:27:15;9.30;94.30
83770;DHT22;73763;48.936;9.300;2024-02-04T09:29:40;9.30;94.20
83770;DHT22;73763;48.936;9.300;2024-02-04T09:32:06;9.40;94.20
83770;DHT22;73763;48.936;9.300;2024-02-04T09:34:31;9.40;93.90
83770;DHT22;73763;48.936;9.300;2024-02-04T09:36:57;9.50;93.70
83770;DHT22;73763;48.936;9.300;2024-02-04T09:39:22;9.50;93.70
83770;DHT22;73763;48.936;9.300;2024-02-04T09:41:48;9.60;93.70
83770;DHT22;73763;48.936;9.300;2024-02-04T09:44:14;9.60;93.50
83770;DHT22;73763;48.936;9.300;2024-02-04T09:46:40;9.60;93.40
83770;DHT22;73763;48.936;9.300;2024-02-04T09:49:07;9.70;93.00
83770;DHT22;73763;48.936;9.300;2024-02-04T09:51:33;9.80;93.40
83770;DHT22;73763;48.936;9.300;2024-02-04T09:54:03;9.90;92.90
83770;DHT22;73763;48.936;9.300;2024-02-04T09:56:30;9.90;92.70
83770;DHT22;73763;48.936;9.300;2024-02-04T09:58:57;10.00;92.40
83770;DHT22;73763;48.936;9.300;2024-02-04T10:01:23;10.20;92.40
83770;DHT22;73763;48.936;9.300;2024-02-04T10:03:49;10.30;92.20
83770;DHT22;73763;48.936;9.300;2024-02-04T10:06:14;10.40;91.90
83770;DHT22;73763;48.936;9.300;2024-02-04T10:08:40;10.50;91.70
83770;DHT22;73763;48.936;9.300;2024-02-04T10:11:06;10.40;91.80
83770;DHT22;73763;48.936;9.300;2024-02-04T10:13:45;10.20;91.50
83770;DHT22;73763;48.936;9.300;2024-02-04T10:16:14;10.30;91.80
83770;DHT22;73763;48.936;9.300;2024-02-04T10:18:47;10.40;92.10
83770;DHT22;73763;48.936;9.300;2024-02-04T10:21:20;10.50;91.90
83770;DHT22;73763;48.936;9.300;2024-02-04T10:23:46;10.70;91.50
83770;DHT22;73763;48.936;9.300;2024-02-04T10:26:12;10.70;91.00
83770;DHT22;73763;48.936;9.300;2024-02-04T10:28:38;10.60;91.00
83770;DHT22;73763;48.936;9.300;2024-02-04T10:31:04;10.60;91.30
83770;DHT22;73763;48.936;9.300;2024-02-04T10:33:32;10.50;91.50
83770;DHT22;73763;48.936;9.300;2024-02-04T10:35:57;10.40;91.20
83770;DHT22;73763;48.936;9.300;2024-02-04T10:38:23;10.40;91.70
83770;DHT22;73763;48.936;9.300;2024-02-04T10:40:49;10.40;91.60
83770;DHT22;73763;48.936;9.300;2024-02-04T10:43:17;10.40;91.60
83770;DHT22;73763;48.936;9.300;2024-02-04T10:45:43;10.50;91.40
83770;DHT22;73763;48.936;9.300;2024-02-04T10:48:11;10.60;91.50
83770;DHT22;73763;48.936;9.300;2024-02-04T10:50:40;10.80;91.40
83770;DHT22;73763;48.936;9.300;2024-02-04T10:53:07;10.80;90.70
83770;DHT22;73763;48.936;9.300;2024-02-04T10:55:41;10.80;90.60
83770;DHT22;73763;48.936;9.300;2024-02-04T10:58:06;10.80;90.80
83770;DHT22;73763;48.936;9.300;2024-02-04T11:00:33;10.70;90.80
83770;DHT22;73763;48.936;9.300;2024-02-04T11:02:59;10.70;90.70
83770;DHT22;73763;48.936;9.300;2024-02-04T11:05:26;10.90;90.80
83770;DHT22;73763;48.936;9.300;2024-02-04T11:07:52;11.30;90.00
83770;DHT22;73763;48.936;9.300;2024-02-04T11:10:18;11.70;88.90
83770;DHT22;73763;48.936;9.300;2024-02-04T11:12:46;11.90;87.10
83770;DHT22;73763;48.936;9.300;2024-02-04T11:15:14;12.10;87.20
83770;DHT22;73763;48.936;9.300;2024-02-04T11:26:09;12.20;86.50
83770;DHT22;73763;48.936;9.300;2024-02-04T11:28:35;11.60;88.00
83770;DHT22;73763;48.936;9.300;2024-02-04T11:31:01;11.10;89.60
83770;DHT22;73763;48.936;9.300;2024-02-04T11:33:27;11.00;90.70
83770;DHT22;73763;48.936;9.300;2024-02-04T11:36:03;10.90;90.60
83770;DHT22;73763;48.936;9.300;2024-02-04T11:38:36;10.80;90.80
83770;DHT22;73763;48.936;9.300;2024-02-04T11:41:03;10.60;90.60
83770;DHT22;73763;48.936;9.300;2024-02-04T11:43:31;10.30;91.20
83770;DHT22;73763;48.936;9.300;2024-02-04T11:45:57;10.30;91.30
83770;DHT22;73763;48.936;9.300;2024-02-04T11:48:35;10.50;91.40
83770;DHT22;73763;48.936;9.300;2024-02-04T11:51:04;10.60;91.10
83770;DHT22;73763;48.936;9.300;2024-02-04T11:53:31;10.60;91.20
83770;DHT22;73763;48.936;9.300;2024-02-04T11:55:57;10.60;91.40
83770;DHT22;73763;48.936;9.300;2024-02-04T11:58:23;10.70;91.00
83770;DHT22;73763;48.936;9.300;2024-02-04T12:00:51;10.80;91.00
83770;DHT22;73763;48.936;9.300;2024-02-04T12:03:31;10.90;91.00
83770;DHT22;73763;48.936;9.300;2024-02-04T12:05:58;11.50;90.30
83770;DHT22;73763;48.936;9.300;2024-02-04T12:08:24;12.70;86.40
83770;DHT22;73763;48.936;9.300;2024-02-04T12:10:50;13.90;82.00
83770;DHT22;73763;48.936;9.300;2024-02-04T12:13:19;13.40;80.90
83770;DHT22;73763;48.936;9.300;2024-02-04T12:15:45;13.40;82.40
83770;DHT22;73763;48.936;9.300;2024-02-04T12:18:11;13.90;81.20
83770;DHT22;73763;48.936;9.300;2024-02-04T12:20:37;15.00;77.30
83770;DHT22;73763;48.936;9.300;2024-02-04T12:23:07;14.90;76.40
83770;DHT22;73763;48.936;9.300;2024-02-04T12:25:34;14.50;78.30
83770;DHT22;73763;48.936;9.300;2024-02-04T12:28:04;14.10;78.80
83770;DHT22;73763;48.936;9.300;2024-02-04T12:30:32;13.50;81.40
83770;DHT22;73763;48.936;9.300;2024-02-04T12:33:03;13.50;82.60
83770;DHT22;73763;48.936;9.300;2024-02-04T12:35:28;13.40;82.40
83770;DHT22;73763;48.936;9.300;2024-02-04T12:37:55;13.00;83.40
83770;DHT22;73763;48.936;9.300;2024-02-04T12:40:25;12.70;85.30
83770;DHT22;73763;48.936;9.300;2024-02-04T12:43:01;12.40;86.50
83770;DHT22;73763;48.936;9.300;2024-02-04T12:45:27;12.30;86.60
83770;DHT22;73763;48.936;9.300;2024-02-04T12:47:54;12.10;86.20
83770;DHT22;73763;48.936;9.300;2024-02-04T12:50:20;12.00;87.40
83770;DHT22;73763;48.936;9.300;2024-02-04T12:53:09;11.90;87.40
83770;DHT22;73763;48.936;9.300;2024-02-04T12:55:34;12.00;87.90
83770;DHT22;73763;48.936;9.300;2024-02-04T12:58:13;12.40;86.80
83770;DHT22;73763;48.936;9.300;2024-02-04T13:00:40;12.70;85.00
83770;DHT22;73763;48.936;9.300;2024-02-04T13:03:07;12.50;85.50
83770;DHT22;73763;48.936;9.300;2024-02-04T13:05:33;12.20;87.00
83770;DHT22;73763;48.936;9.300;2024-02-04T13:08:00;12.10;87.60
83770;DHT22;73763;48.936;9.300;2024-02-04T13:10:27;12.00;87.50
83770;DHT22;73763;48.936;9.300;2024-02-04T13:13:06;11.90;87.70
83770;DHT22;73763;48.936;9.300;2024-02-04T13:15:36;11.80;88.10
83770;DHT22;73763;48.936;9.300;2024-02-04T13:18:02;11.60;88.90
83770;DHT22;73763;48.936;9.300;2024-02-04T13:20:28;11.50;90.00
83770;DHT22;73763;48.936;9.300;2024-02-04T13:22:53;11.50;89.20
83770;DHT22;73763;48.936;9.300;2024-02-04T13:25:20;11.30;90.30
83770;DHT22;73763;48.936;9.300;2024-02-04T13:27:48;11.40;90.20
83770;DHT22;73763;48.936;9.300;2024-02-04T13:30:16;11.30;90.00
83770;DHT22;73763;48.936;9.300;2024-02-04T13:32:43;11.20;90.20
83770;DHT22;73763;48.936;9.300;2024-02-04T13:35:09;11.10;90.50
83770;DHT22;73763;48.936;9.300;2024-02-04T13:37:45;11.00;90.60
83770;DHT22;73763;48.936;9.300;2024-02-04T13:40:13;11.00;90.90
83770;DHT22;73763;48.936;9.300;2024-02-04T13:42:39;11.20;90.50
83770;DHT22;73763;48.936;9.300;2024-02-04T13:45:05;11.20;90.40
83770;DHT22;73763;48.936;9.300;2024-02-04T13:47:31;11.10;90.70
83770;DHT22;73763;48.936;9.300;2024-02-04T13:49:59;11.00;90.90
83770;DHT22;73763;48.936;9.300;2024-02-04T13:52:24;11.00;91.00
83770;DHT22;73763;48.936;9.300;2024-02-04T13:54:51;11.00;90.80
83770;DHT22;73763;48.936;9.300;2024-02-04T13:57:17;11.10;91.00
83770;DHT22;73763;48.936;9.300;2024-02-04T13:59:43;11.10;90.60
83770;DHT22;73763;48.936;9.300;2024-02-04T14:02:10;11.10;90.70
83770;DHT22;73763;48.936;9.300;2024-02-04T14:04:36;11.10;90.80
83770;DHT22;73763;48.936;9.300;2024-02-04T14:07:01;11.00;90.90
83770;DHT22;73763;48.936;9.300;2024-02-04T14:09:30;10.90;91.40
83770;DHT22;73763;48.936;9.300;2024-02-04T14:11:56;10.90;91.60
83770;DHT22;73763;48.936;9.300;2024-02-04T14:14:26;10.90;91.30
83770;DHT22;73763;48.936;9.300;2024-02-04T14:16:55;10.90;91.50
83770;DHT22;73763;48.936;9.300;2024-02-04T14:19:24;10.90;91.50
83770;DHT22;73763;48.936;9.300;2024-02-04T14:21:59;10.90;91.60
83770;DHT22;73763;48.936;9.300;2024-02-04T14:24:37;10.80;91.70
83770;DHT22;73763;48.936;9.300;2024-02-04T14:27:27;10.80;91.70
83770;DHT22;73763;48.936;9.300;2024-02-04T14:29:53;10.70;91.70
83770;DHT22;73763;48.936;9.300;2024-02-04T14:32:18;10.70;91.80
83770;DHT22;73763;48.936;9.300;2024-02-04T14:34:44;10.60;92.10
83770;DHT22;73763;48.936;9.300;2024-02-04T14:37:10;10.60;92.30
83770;DHT22;73763;48.936;9.300;2024-02-04T14:39:35;10.50;92.20
83770;DHT22;73763;48.936;9.300;2024-02-04T14:42:01;10.50;92.40
83770;DHT22;73763;48.936;9.300;2024-02-04T14:44:27;10.40;92.50
83770;DHT22;73763;48.936;9.300;2024-02-04T14:46:52;10.40;92.60
83770;DHT22;73763;48.936;9.300;2024-02-04T14:49:23;10.30;92.50
83770;DHT22;73763;48.936;9.300;2024-02-04T14:51:52;10.20;93.00
83770;DHT22;73763;48.936;9.300;2024-02-04T14:54:18;10.20;92.70
83770;DHT22;73763;48.936;9.300;2024-02-04T14:56:44;10.20;93.10
83770;DHT22;73763;48.936;9.300;2024-02-04T14:59:11;10.10;93.00
83770;DHT22;73763;48.936;9.300;2024-02-04T15:01:37;10.10;93.20
83770;DHT22;73763;48.936;9.300;2024-02-04T15:04:03;10.10;93.20
83770;DHT22;73763;48.936;9.300;2024-02-04T15:06:28;10.10;93.40
83770;DHT22;73763;48.936;9.300;2024-02-04T15:08:54;10.10;93.40
83770;DHT22;73763;48.936;9.300;2024-02-04T15:11:20;10.00;93.40
83770;DHT22;73763;48.936;9.300;2024-02-04T15:13:46;9.90;93.50
83770;DHT22;73763;48.936;9.300;2024-02-04T15:16:12;9.90;93.60
83770;DHT22;73763;48.936;9.300;2024-02-04T15:18:38;9.80;93.80
83770;DHT22;73763;48.936;9.300;2024-02-04T15:21:04;9.70;94.00
83770;DHT22;73763;48.936;9.300;2024-02-04T15:23:30;9.70;93.90
83770;DHT22;73763;48.936;9.300;2024-02-04T15:25:56;9.70;94.10
83770;DHT22;73763;48.936;9.300;2024-02-04T15:28:23;9.60;94.00
83770;DHT22;73763;48.936;9.300;2024-02-04T15:30:51;9.60;94.10
83770;DHT22;73763;48.936;9.300;2024-02-04T15:33:16;9.60;94.10
83770;DHT22;73763;48.936;9.300;2024-02-04T15:35:42;9.50;94.30
83770;DHT22;73763;48.936;9.300;2024-02-04T15:38:08;9.50;94.80
83770;DHT22;73763;48.936;9.300;2024-02-04T15:40:34;9.50;94.60
83770;DHT22;73763;48.936;9.300;2024-02-04T15:42:59;9.40;94.50
83770;DHT22;73763;48.936;9.300;2024-02-04T15:45:25;9.50;94.70
83770;DHT22;73763;48.936;9.300;2024-02-04T15:47:51;9.50;94.80